sensor_id;sensor_type;location;lat;lon;timestamp;pressure;altitude;pressure_sealevel;temperature;humidity
17607;BME280;8922;52.240;20.980;2023-02-17T00:01:36;100533.66;;;4.06;74.89
17607;BME280;8922;52.240;20.980;2023-02-17T00:04:05;100537.06;;;4.06;75.02
17607;BME280;8922;52.240;20.980;2023-02-17T00:06:35;100532.84;;;4.08;74.93
17607;BME280;8922;52.240;20.980;2023-02-17T00:09:03;100539.69;;;4.09;74.89
17607;BME280;8922;52.240;20.980;2023-02-17T00:11:32;100535.38;;;4.07;75.21
17607;BME280;8922;52.240;20.980;2023-02-17T00:14:00;100526.03;;;4.07;75.04
17607;BME280;8922;52.240;20.980;2023-02-17T00:16:29;100527.78;;;4.10;75.04
17607;BME280;8922;52.240;20.980;2023-02-17T00:19:00;100526.06;;;4.09;75.65
17607;BME280;8922;52.240;20.980;2023-02-17T00:21:30;100524.34;;;4.08;75.07
17607;BME280;8922;52.240;20.980;2023-02-17T00:24:00;100524.41;;;4.11;75.47
17607;BME280;8922;52.240;20.980;2023-02-17T00:26:29;100527.88;;;4.15;74.83
17607;BME280;8922;52.240;20.980;2023-02-17T00:28:57;100524.47;;;4.14;74.93
17607;BME280;8922;52.240;20.980;2023-02-17T00:31:26;100530.50;;;4.16;75.39
17607;BME280;8922;52.240;20.980;2023-02-17T00:33:55;100521.16;;;4.17;75.16
17607;BME280;8922;52.240;20.980;2023-02-17T00:36:24;100521.94;;;4.16;74.92
17607;BME280;8922;52.240;20.980;2023-02-17T00:38:55;100517.75;;;4.18;74.80
17607;BME280;8922;52.240;20.980;2023-02-17T00:41:26;100516.97;;;4.20;74.82
17607;BME280;8922;52.240;20.980;2023-02-17T00:43:55;100514.44;;;4.20;74.71
17607;BME280;8922;52.240;20.980;2023-02-17T00:46:25;100506.78;;;4.20;74.98
17607;BME280;8922;52.240;20.980;2023-02-17T00:48:53;100511.06;;;4.23;74.81
17607;BME280;8922;52.240;20.980;2023-02-17T00:51:23;100510.19;;;4.22;74.60
17607;BME280;8922;52.240;20.980;2023-02-17T00:53:51;100512.81;;;4.25;74.16
17607;BME280;8922;52.240;20.980;2023-02-17T00:56:20;100506.03;;;4.26;74.22
17607;BME280;8922;52.240;20.980;2023-02-17T00:58:49;100500.06;;;4.25;74.68
17607;BME280;8922;52.240;20.980;2023-02-17T01:01:18;100506.88;;;4.26;74.68
17607;BME280;8922;52.240;20.980;2023-02-17T01:03:46;100500.13;;;4.28;74.89
17607;BME280;8922;52.240;20.980;2023-02-17T01:06:22;100494.13;;;4.26;74.76
17607;BME280;8922;52.240;20.980;2023-02-17T01:08:51;100484.84;;;4.28;74.43
17607;BME280;8922;52.240;20.980;2023-02-17T01:11:21;100480.59;;;4.30;74.61
17607;BME280;8922;52.240;20.980;2023-02-17T01:13:53;100491.69;;;4.31;74.34
17607;BME280;8922;52.240;20.980;2023-02-17T01:16:26;100486.69;;;4.35;74.18
17607;BME280;8922;52.240;20.980;2023-02-17T01:18:55;100484.13;;;4.35;73.88
17607;BME280;8922;52.240;20.980;2023-02-17T01:21:27;100475.56;;;4.33;74.14
17607;BME280;8922;52.240;20.980;2023-02-17T01:23:58;100478.97;;;4.34;73.91
17607;BME280;8922;52.240;20.980;2023-02-17T01:26:32;100477.34;;;4.36;74.50
17607;BME280;8922;52.240;20.980;2023-02-17T01:29:03;100470.53;;;4.36;74.41
17607;BME280;8922;52.240;20.980;2023-02-17T01:31:32;100474.88;;;4.41;74.01
17607;BME280;8922;52.240;20.980;2023-02-17T01:34:02;100460.41;;;4.40;74.69
17607;BME280;8922;52.240;20.980;2023-02-17T01:36:31;100457.91;;;4.43;73.86
17607;BME280;8922;52.240;20.980;2023-02-17T01:39:00;100455.38;;;4.44;74.01
17607;BME280;8922;52.240;20.980;2023-02-17T01:41:28;100458.84;;;4.46;74.07
17607;BME280;8922;52.240;20.980;2023-02-17T01:44:13;100445.19;;;4.44;74.13
17607;BME280;8922;52.240;20.980;2023-02-17T01:46:44;100450.34;;;4.46;74.22
17607;BME280;8922;52.240;20.980;2023-02-17T01:49:23;100447.78;;;4.47;73.83
17607;BME280;8922;52.240;20.980;2023-02-17T01:51:58;100459.72;;;4.48;74.16
17607;BME280;8922;52.240;20.980;2023-02-17T01:54:35;100458.84;;;4.48;74.05
17607;BME280;8922;52.240;20.980;2023-02-17T01:57:05;100452.91;;;4.49;74.31
17607;BME280;8922;52.240;20.980;2023-02-17T01:59:35;100449.56;;;4.50;74.43
17607;BME280;8922;52.240;20.980;2023-02-17T02:02:04;100452.97;;;4.52;74.23
17607;BME280;8922;52.240;20.980;2023-02-17T02:04:38;100436.81;;;4.50;74.48
17607;BME280;8922;52.240;20.980;2023-02-17T02:07:16;100445.31;;;4.52;73.76
17607;BME280;8922;52.240;20.980;2023-02-17T02:09:51;100447.06;;;4.53;74.11
17607;BME280;8922;52.240;20.980;2023-02-17T02:12:23;100440.22;;;4.52;73.85
17607;BME280;8922;52.240;20.980;2023-02-17T02:14:57;100438.63;;;4.57;73.72
17607;BME280;8922;52.240;20.980;2023-02-17T02:17:34;100442.00;;;4.56;73.99
17607;BME280;8922;52.240;20.980;2023-02-17T02:20:25;100433.56;;;4.58;74.00
17607;BME280;8922;52.240;20.980;2023-02-17T02:30:06;100422.63;;;4.64;73.07
17607;BME280;8922;52.240;20.980;2023-02-17T02:32:56;100429.44;;;4.65;73.28
17607;BME280;8922;52.240;20.980;2023-02-17T02:35:30;100434.53;;;4.65;73.35
17607;BME280;8922;52.240;20.980;2023-02-17T02:38:04;100432.81;;;4.64;73.93
17607;BME280;8922;52.240;20.980;2023-02-17T02:40:39;100428.53;;;4.63;73.93
17607;BME280;8922;52.240;20.980;2023-02-17T02:43:10;100428.53;;;4.63;73.83
17607;BME280;8922;52.240;20.980;2023-02-17T02:45:39;100424.25;;;4.62;73.96
17607;BME280;8922;52.240;20.980;2023-02-17T02:48:09;100429.31;;;4.59;73.65
17607;BME280;8922;52.240;20.980;2023-02-17T02:51:05;100420.81;;;4.60;74.02
17607;BME280;8922;52.240;20.980;2023-02-17T02:57:23;100417.44;;;4.61;73.70
17607;BME280;8922;52.240;20.980;2023-02-17T03:00:11;100408.94;;;4.62;74.46
17607;BME280;8922;52.240;20.980;2023-02-17T03:02:48;100410.66;;;4.63;73.83
17607;BME280;8922;52.240;20.980;2023-02-17T03:05:27;100408.09;;;4.63;74.22
17607;BME280;8922;52.240;20.980;2023-02-17T03:08:05;100420.06;;;4.64;74.62
17607;BME280;8922;52.240;20.980;2023-02-17T03:10:42;100416.69;;;4.67;74.29
17607;BME280;8922;52.240;20.980;2023-02-17T03:13:11;100418.44;;;4.69;74.18
17607;BME280;8922;52.240;20.980;2023-02-17T03:15:39;100407.38;;;4.70;73.94
17607;BME280;8922;52.240;20.980;2023-02-17T03:18:08;100407.38;;;4.70;74.61
17607;BME280;8922;52.240;20.980;2023-02-17T03:20:44;100413.34;;;4.71;74.39
17607;BME280;8922;52.240;20.980;2023-02-17T03:23:16;100410.84;;;4.72;74.54
17607;BME280;8922;52.240;20.980;2023-02-17T03:25:44;100421.00;;;4.71;74.88
17607;BME280;8922;52.240;20.980;2023-02-17T03:28:14;100416.72;;;4.68;74.96
17607;BME280;8922;52.240;20.980;2023-02-17T03:30:42;100421.00;;;4.69;74.82
17607;BME280;8922;52.240;20.980;2023-02-17T03:33:11;100412.50;;;4.70;74.97
17607;BME280;8922;52.240;20.980;2023-02-17T03:35:40;100410.78;;;4.71;75.15
17607;BME280;8922;52.240;20.980;2023-02-17T03:38:09;100415.91;;;4.71;75.62
17607;BME280;8922;52.240;20.980;2023-02-17T03:40:37;100414.19;;;4.70;75.56
17607;BME280;8922;52.240;20.980;2023-02-17T03:43:06;100408.22;;;4.69;75.40
17607;BME280;8922;52.240;20.980;2023-02-17T03:45:35;100410.78;;;4.69;76.10
17607;BME280;8922;52.240;20.980;2023-02-17T03:48:04;100417.59;;;4.69;75.69
17607;BME280;8922;52.240;20.980;2023-02-17T03:50:33;100423.56;;;4.71;76.43
17607;BME280;8922;52.240;20.980;2023-02-17T03:53:02;100422.75;;;4.72;76.49
17607;BME280;8922;52.240;20.980;2023-02-17T03:55:31;100422.75;;;4.72;76.00
17607;BME280;8922;52.240;20.980;2023-02-17T03:58:00;100420.19;;;4.72;76.51
17607;BME280;8922;52.240;20.980;2023-02-17T04:00:28;100409.09;;;4.70;76.66
17607;BME280;8922;52.240;20.980;2023-02-17T04:02:56;100403.13;;;4.69;76.73
17607;BME280;8922;52.240;20.980;2023-02-17T04:05:25;100396.31;;;4.68;77.11
17607;BME280;8922;52.240;20.980;2023-02-17T04:07:53;100388.69;;;4.71;77.34
17607;BME280;8922;52.240;20.980;2023-02-17T04:10:23;100389.56;;;4.72;77.80
17607;BME280;8922;52.240;20.980;2023-02-17T04:12:52;100389.56;;;4.72;77.59
17607;BME280;8922;52.240;20.980;2023-02-17T04:15:20;100387.03;;;4.73;77.95
17607;BME280;8922;52.240;20.980;2023-02-17T04:17:49;100393.03;;;4.77;77.44
17607;BME280;8922;52.240;20.980;2023-02-17T04:20:17;100392.25;;;4.79;78.01
17607;BME280;8922;52.240;20.980;2023-02-17T04:22:46;100407.63;;;4.82;77.31
17607;BME280;8922;52.240;20.980;2023-02-17T04:25:14;100403.34;;;4.81;77.94
17607;BME280;8922;52.240;20.980;2023-02-17T04:27:44;100403.31;;;4.80;78.14
17607;BME280;8922;52.240;20.980;2023-02-17T04:30:14;100390.56;;;4.81;78.21
17607;BME280;8922;52.240;20.980;2023-02-17T04:32:42;100398.22;;;4.81;78.17
17607;BME280;8922;52.240;20.980;2023-02-17T04:35:11;100393.97;;;4.82;78.32
17607;BME280;8922;52.240;20.980;2023-02-17T04:37:39;100389.75;;;4.82;78.27
17607;BME280;8922;52.240;20.980;2023-02-17T04:40:09;100374.44;;;4.82;78.46
17607;BME280;8922;52.240;20.980;2023-02-17T04:42:38;100370.16;;;4.81;78.63
17607;BME280;8922;52.240;20.980;2023-02-17T04:45:09;100368.50;;;4.83;79.03
17607;BME280;8922;52.240;20.980;2023-02-17T04:47:38;100378.72;;;4.85;79.05
17607;BME280;8922;52.240;20.980;2023-02-17T04:50:08;100368.53;;;4.87;79.18
17607;BME280;8922;52.240;20.980;2023-02-17T04:52:37;100369.41;;;4.87;79.51
17607;BME280;8922;52.240;20.980;2023-02-17T04:55:06;100366.00;;;4.88;79.55
17607;BME280;8922;52.240;20.980;2023-02-17T04:57:35;100364.31;;;4.89;79.73
17607;BME280;8922;52.240;20.980;2023-02-17T05:00:05;100356.66;;;4.89;79.55
17607;BME280;8922;52.240;20.980;2023-02-17T05:02:35;100356.66;;;4.89;79.73
17607;BME280;8922;52.240;20.980;2023-02-17T05:05:04;100347.28;;;4.89;80.42
17607;BME280;8922;52.240;20.980;2023-02-17T05:07:32;100343.03;;;4.88;80.23
17607;BME280;8922;52.240;20.980;2023-02-17T05:10:01;100341.34;;;4.89;80.50
17607;BME280;8922;52.240;20.980;2023-02-17T05:12:30;100344.72;;;4.88;80.64
17607;BME280;8922;52.240;20.980;2023-02-17T05:14:58;100348.16;;;4.90;80.83
17607;BME280;8922;52.240;20.980;2023-02-17T05:17:27;100348.16;;;4.90;80.85
17607;BME280;8922;52.240;20.980;2023-02-17T05:19:57;100348.16;;;4.90;80.92
17607;BME280;8922;52.240;20.980;2023-02-17T05:22:26;100337.06;;;4.89;80.96
17607;BME280;8922;52.240;20.980;2023-02-17T05:24:54;100343.09;;;4.91;81.24
17607;BME280;8922;52.240;20.980;2023-02-17T05:27:23;100339.69;;;4.92;81.58
17607;BME280;8922;52.240;20.980;2023-02-17T05:29:51;100331.22;;;4.95;81.56
17607;BME280;8922;52.240;20.980;2023-02-17T05:32:22;100338.03;;;4.96;81.61
17607;BME280;8922;52.240;20.980;2023-02-17T05:34:50;100337.19;;;4.97;81.27
17607;BME280;8922;52.240;20.980;2023-02-17T05:37:20;100331.28;;;4.98;81.40
17607;BME280;8922;52.240;20.980;2023-02-17T05:39:49;100332.97;;;4.97;81.38
17607;BME280;8922;52.240;20.980;2023-02-17T05:42:17;100337.25;;;4.98;81.30
17607;BME280;8922;52.240;20.980;2023-02-17T05:44:45;100333.84;;;4.99;81.12
17607;BME280;8922;52.240;20.980;2023-02-17T05:47:14;100340.66;;;4.99;81.53
17607;BME280;8922;52.240;20.980;2023-02-17T05:49:43;100326.22;;;5.01;80.94
17607;BME280;8922;52.240;20.980;2023-02-17T05:52:13;100322.81;;;5.02;81.61
17607;BME280;8922;52.240;20.980;2023-02-17T05:54:44;100326.25;;;5.02;81.12
17607;BME280;8922;52.240;20.980;2023-02-17T05:57:13;100320.28;;;5.03;80.98
17607;BME280;8922;52.240;20.980;2023-02-17T05:59:43;100322.88;;;5.05;80.73
17607;BME280;8922;52.240;20.980;2023-02-17T06:02:11;100321.13;;;5.04;80.94
17607;BME280;8922;52.240;20.980;2023-02-17T06:04:40;100321.19;;;5.07;80.51
17607;BME280;8922;52.240;20.980;2023-02-17T06:07:08;100305.88;;;5.07;80.72
17607;BME280;8922;52.240;20.980;2023-02-17T06:09:37;100318.69;;;5.08;80.17
17607;BME280;8922;52.240;20.980;2023-02-17T06:12:07;100322.09;;;5.11;80.55
17607;BME280;8922;52.240;20.980;2023-02-17T06:14:36;100318.69;;;5.10;80.17
17607;BME280;8922;52.240;20.980;2023-02-17T06:17:05;100326.34;;;5.10;79.87
17607;BME280;8922;52.240;20.980;2023-02-17T06:19:33;100322.09;;;5.09;79.85
17607;BME280;8922;52.240;20.980;2023-02-17T06:22:01;100328.06;;;5.11;79.87
17607;BME280;8922;52.240;20.980;2023-02-17T06:24:30;100324.69;;;5.12;79.45
17607;BME280;8922;52.240;20.980;2023-02-17T06:27:00;100320.41;;;5.11;79.58
17607;BME280;8922;52.240;20.980;2023-02-17T06:29:30;100323.00;;;5.14;79.76
17607;BME280;8922;52.240;20.980;2023-02-17T06:31:58;100331.56;;;5.16;79.29
17607;BME280;8922;52.240;20.980;2023-02-17T06:34:27;100321.34;;;5.16;79.51
17607;BME280;8922;52.240;20.980;2023-02-17T06:36:56;100322.22;;;5.18;79.18
17607;BME280;8922;52.240;20.980;2023-02-17T06:39:25;100315.38;;;5.17;78.85
17607;BME280;8922;52.240;20.980;2023-02-17T06:41:53;100315.41;;;5.19;78.92
17607;BME280;8922;52.240;20.980;2023-02-17T06:44:21;100312.00;;;5.18;78.74
17607;BME280;8922;52.240;20.980;2023-02-17T06:46:51;100311.19;;;5.19;78.59
17607;BME280;8922;52.240;20.980;2023-02-17T06:49:20;100298.38;;;5.18;78.96
17607;BME280;8922;52.240;20.980;2023-02-17T06:51:48;100290.75;;;5.19;78.81
17607;BME280;8922;52.240;20.980;2023-02-17T06:54:16;100298.47;;;5.24;78.87
17607;BME280;8922;52.240;20.980;2023-02-17T06:56:45;100296.78;;;5.26;78.45
17607;BME280;8922;52.240;20.980;2023-02-17T06:59:13;100304.47;;;5.27;78.33
17607;BME280;8922;52.240;20.980;2023-02-17T07:01:42;100292.56;;;5.28;78.17
17607;BME280;8922;52.240;20.980;2023-02-17T07:04:12;100297.72;;;5.31;78.43
17607;BME280;8922;52.240;20.980;2023-02-17T07:06:40;100284.97;;;5.34;77.84
17607;BME280;8922;52.240;20.980;2023-02-17T07:09:09;100289.31;;;5.40;77.97
17607;BME280;8922;52.240;20.980;2023-02-17T07:11:40;100294.50;;;5.46;77.25
17607;BME280;8922;52.240;20.980;2023-02-17T07:14:11;100289.44;;;5.49;77.45
17607;BME280;8922;52.240;20.980;2023-02-17T07:16:39;100294.56;;;5.52;77.14
17607;BME280;8922;52.240;20.980;2023-02-17T07:19:08;100289.50;;;5.55;76.50
17607;BME280;8922;52.240;20.980;2023-02-17T07:21:37;100288.72;;;5.62;77.16
17607;BME280;8922;52.240;20.980;2023-02-17T07:24:06;100288.81;;;5.68;76.40
17607;BME280;8922;52.240;20.980;2023-02-17T07:26:35;100280.38;;;5.77;75.77
17607;BME280;8922;52.240;20.980;2023-02-17T07:29:05;100285.56;;;5.81;75.44
17607;BME280;8922;52.240;20.980;2023-02-17T07:31:35;100285.63;;;5.88;75.49
17607;BME280;8922;52.240;20.980;2023-02-17T07:34:04;100286.63;;;5.99;75.12
17607;BME280;8922;52.240;20.980;2023-02-17T07:36:32;100286.72;;;6.05;73.71
17607;BME280;8922;52.240;20.980;2023-02-17T07:39:03;100285.06;;;6.10;73.72
17607;BME280;8922;52.240;20.980;2023-02-17T07:41:33;100290.25;;;6.16;74.40
17607;BME280;8922;52.240;20.980;2023-02-17T07:44:01;100285.13;;;6.16;73.36
17607;BME280;8922;52.240;20.980;2023-02-17T07:46:30;100279.97;;;6.13;72.91
17607;BME280;8922;52.240;20.980;2023-02-17T07:48:58;100278.25;;;6.12;73.11
17607;BME280;8922;52.240;20.980;2023-02-17T07:51:27;100285.91;;;6.11;73.42
17607;BME280;8922;52.240;20.980;2023-02-17T07:53:55;100282.50;;;6.09;73.08
17607;BME280;8922;52.240;20.980;2023-02-17T07:56:25;100291.03;;;6.11;72.59
17607;BME280;8922;52.240;20.980;2023-02-17T07:58:56;100277.38;;;6.09;72.71
17607;BME280;8922;52.240;20.980;2023-02-17T08:01:25;100278.22;;;6.11;72.72
17607;BME280;8922;52.240;20.980;2023-02-17T08:03:55;100275.72;;;6.14;72.63
17607;BME280;8922;52.240;20.980;2023-02-17T08:06:24;100276.59;;;6.17;71.90
17607;BME280;8922;52.240;20.980;2023-02-17T08:08:53;100269.81;;;6.21;71.78
17607;BME280;8922;52.240;20.980;2023-02-17T08:11:56;100274.19;;;6.31;71.47
17607;BME280;8922;52.240;20.980;2023-02-17T08:14:45;100268.25;;;6.37;70.97
17607;BME280;8922;52.240;20.980;2023-02-17T08:17:15;100271.69;;;6.39;70.86
17607;BME280;8922;52.240;20.980;2023-02-17T08:19:46;100271.69;;;6.37;71.30
17607;BME280;8922;52.240;20.980;2023-02-17T08:22:15;100270.84;;;6.40;70.46
17607;BME280;8922;52.240;20.980;2023-02-17T08:24:45;100270.88;;;6.41;70.46
17607;BME280;8922;52.240;20.980;2023-02-17T08:27:15;100269.13;;;6.40;70.52
17607;BME280;8922;52.240;20.980;2023-02-17T08:29:44;100267.44;;;6.38;70.38
17607;BME280;8922;52.240;20.980;2023-02-17T08:32:14;100265.69;;;6.35;70.27
17607;BME280;8922;52.240;20.980;2023-02-17T08:34:43;100260.56;;;6.37;70.21
17607;BME280;8922;52.240;20.980;2023-02-17T08:37:12;100258.91;;;6.39;69.93
17607;BME280;8922;52.240;20.980;2023-02-17T08:39:40;100251.25;;;6.42;70.52
17607;BME280;8922;52.240;20.980;2023-02-17T08:42:09;100247.00;;;6.45;70.64
17607;BME280;8922;52.240;20.980;2023-02-17T08:44:39;100250.47;;;6.50;70.06
17607;BME280;8922;52.240;20.980;2023-02-17T08:47:08;100241.13;;;6.57;69.97
17607;BME280;8922;52.240;20.980;2023-02-17T08:49:36;100244.59;;;6.65;70.16
17607;BME280;8922;52.240;20.980;2023-02-17T08:52:05;100248.91;;;6.71;69.66
17607;BME280;8922;52.240;20.980;2023-02-17T08:54:33;100242.13;;;6.76;69.70
17607;BME280;8922;52.240;20.980;2023-02-17T08:57:02;100241.31;;;6.85;69.80
17607;BME280;8922;52.240;20.980;2023-02-17T08:59:31;100231.94;;;6.87;69.15
17607;BME280;8922;52.240;20.980;2023-02-17T09:02:00;100234.50;;;6.88;68.94
17607;BME280;8922;52.240;20.980;2023-02-17T09:04:29;100244.81;;;6.93;69.36
17607;BME280;8922;52.240;20.980;2023-02-17T09:06:57;100244.84;;;6.96;69.04
17607;BME280;8922;52.240;20.980;2023-02-17T09:09:27;100237.16;;;6.97;68.89
17607;BME280;8922;52.240;20.980;2023-02-17T09:11:56;100240.56;;;7.02;69.19
17607;BME280;8922;52.240;20.980;2023-02-17T09:14:25;100241.44;;;7.00;69.00
17607;BME280;8922;52.240;20.980;2023-02-17T09:16:55;100243.13;;;6.98;68.81
17607;BME280;8922;52.240;20.980;2023-02-17T09:19:25;100243.09;;;6.95;69.37
17607;BME280;8922;52.240;20.980;2023-02-17T09:21:55;100237.09;;;6.90;70.25
17607;BME280;8922;52.240;20.980;2023-02-17T09:24:24;100238.78;;;6.86;69.97
17607;BME280;8922;52.240;20.980;2023-02-17T09:26:52;100230.22;;;6.84;70.83
17607;BME280;8922;52.240;20.980;2023-02-17T09:29:20;100230.22;;;6.84;71.44
17607;BME280;8922;52.240;20.980;2023-02-17T09:31:49;100228.50;;;6.83;70.98
17607;BME280;8922;52.240;20.980;2023-02-17T09:34:18;100224.25;;;6.87;71.42
17607;BME280;8922;52.240;20.980;2023-02-17T09:36:47;100222.59;;;6.89;71.35
17607;BME280;8922;52.240;20.980;2023-02-17T09:39:17;100226.00;;;6.91;71.20
17607;BME280;8922;52.240;20.980;2023-02-17T09:41:48;100217.47;;;6.89;70.63
17607;BME280;8922;52.240;20.980;2023-02-17T09:44:21;100209.72;;;6.83;71.06
17607;BME280;8922;52.240;20.980;2023-02-17T09:46:57;100213.13;;;6.78;71.55
17607;BME280;8922;52.240;20.980;2023-02-17T09:49:35;100199.41;;;6.73;72.18
17607;BME280;8922;52.240;20.980;2023-02-17T09:52:12;100200.31;;;6.74;72.58
17607;BME280;8922;52.240;20.980;2023-02-17T09:54:51;100189.19;;;6.75;72.77
17607;BME280;8922;52.240;20.980;2023-02-17T09:57:28;100189.16;;;6.73;72.72
17607;BME280;8922;52.240;20.980;2023-02-17T10:00:06;100184.06;;;6.75;72.68
17607;BME280;8922;52.240;20.980;2023-02-17T10:02:43;100182.38;;;6.74;72.71
17607;BME280;8922;52.240;20.980;2023-02-17T10:05:18;100184.94;;;6.75;73.09
17607;BME280;8922;52.240;20.980;2023-02-17T10:07:55;100179.84;;;6.78;73.65
17607;BME280;8922;52.240;20.980;2023-02-17T10:10:32;100179.84;;;6.78;73.45
17607;BME280;8922;52.240;20.980;2023-02-17T10:13:02;100181.53;;;6.78;73.59
17607;BME280;8922;52.240;20.980;2023-02-17T10:15:38;100183.25;;;6.77;73.40
17607;BME280;8922;52.240;20.980;2023-02-17T10:18:15;100178.94;;;6.76;73.94
17607;BME280;8922;52.240;20.980;2023-02-17T10:20:49;100178.09;;;6.74;74.33
17607;BME280;8922;52.240;20.980;2023-02-17T10:23:22;100185.78;;;6.74;74.16
17607;BME280;8922;52.240;20.980;2023-02-17T10:26:09;100178.91;;;6.67;74.21
17607;BME280;8922;52.240;20.980;2023-02-17T10:28:50;100171.22;;;6.67;74.99
17607;BME280;8922;52.240;20.980;2023-02-17T10:31:35;100171.19;;;6.64;75.57
17607;BME280;8922;52.240;20.980;2023-02-17T10:34:15;100166.94;;;6.66;75.72
17607;BME280;8922;52.240;20.980;2023-02-17T10:36:56;100159.25;;;6.63;75.49
17607;BME280;8922;52.240;20.980;2023-02-17T10:39:45;100156.69;;;6.66;76.39
17607;BME280;8922;52.240;20.980;2023-02-17T10:42:20;100143.88;;;6.66;76.10
17607;BME280;8922;52.240;20.980;2023-02-17T10:44:53;100149.06;;;6.72;76.48
17607;BME280;8922;52.240;20.980;2023-02-17T10:47:24;100134.56;;;6.74;76.64
17607;BME280;8922;52.240;20.980;2023-02-17T10:49:54;100128.59;;;6.75;76.15
17607;BME280;8922;52.240;20.980;2023-02-17T10:52:29;100122.63;;;6.75;76.93
17607;BME280;8922;52.240;20.980;2023-02-17T10:55:04;100121.78;;;6.74;76.92
17607;BME280;8922;52.240;20.980;2023-02-17T10:57:53;100113.22;;;6.72;76.62
17607;BME280;8922;52.240;20.980;2023-02-17T11:00:24;100114.09;;;6.77;77.11
17607;BME280;8922;52.240;20.980;2023-02-17T11:02:54;100103.00;;;6.85;77.58
17607;BME280;8922;52.240;20.980;2023-02-17T11:05:26;100104.75;;;6.92;77.21
17607;BME280;8922;52.240;20.980;2023-02-17T11:07:57;100100.53;;;6.98;76.94
17607;BME280;8922;52.240;20.980;2023-02-17T11:10:32;100094.56;;;7.04;76.74
17607;BME280;8922;52.240;20.980;2023-02-17T11:13:03;100077.50;;;7.09;76.87
17607;BME280;8922;52.240;20.980;2023-02-17T11:15:43;100071.53;;;7.09;76.05
17607;BME280;8922;52.240;20.980;2023-02-17T11:18:20;100055.28;;;6.96;76.49
17607;BME280;8922;52.240;20.980;2023-02-17T11:21:04;100064.69;;;7.05;77.04
17607;BME280;8922;52.240;20.980;2023-02-17T11:23:35;100055.28;;;7.05;76.71
17607;BME280;8922;52.240;20.980;2023-02-17T11:26:15;100060.41;;;7.05;77.12
17607;BME280;8922;52.240;20.980;2023-02-17T11:28:44;100048.44;;;7.01;77.53
17607;BME280;8922;52.240;20.980;2023-02-17T11:31:23;100044.19;;;7.01;78.13
17607;BME280;8922;52.240;20.980;2023-02-17T11:33:52;100038.19;;;7.01;78.06
17607;BME280;8922;52.240;20.980;2023-02-17T11:36:26;100029.66;;;7.02;77.97
17607;BME280;8922;52.240;20.980;2023-02-17T11:38:56;100018.56;;;7.00;78.48
17607;BME280;8922;52.240;20.980;2023-02-17T11:41:37;100013.44;;;7.01;78.89
17607;BME280;8922;52.240;20.980;2023-02-17T11:44:08;100010.00;;;7.02;77.92
17607;BME280;8922;52.240;20.980;2023-02-17T11:46:43;100001.50;;;7.04;78.18
17607;BME280;8922;52.240;20.980;2023-02-17T11:50:08;100002.34;;;7.04;77.70
17607;BME280;8922;52.240;20.980;2023-02-17T11:52:53;99999.75;;;7.02;78.30
17607;BME280;8922;52.240;20.980;2023-02-17T11:55:34;99991.22;;;7.02;78.45
17607;BME280;8922;52.240;20.980;2023-02-17T11:58:26;99983.53;;;7.02;78.81
17607;BME280;8922;52.240;20.980;2023-02-17T12:01:08;99983.56;;;7.05;78.56
17607;BME280;8922;52.240;20.980;2023-02-17T12:04:20;99974.19;;;7.07;78.26
17607;BME280;8922;52.240;20.980;2023-02-17T12:07:13;99967.34;;;7.05;78.21
17607;BME280;8922;52.240;20.980;2023-02-17T12:09:52;99963.91;;;7.09;78.66
17607;BME280;8922;52.240;20.980;2023-02-17T12:12:33;99957.94;;;7.08;78.43
17607;BME280;8922;52.240;20.980;2023-02-17T12:15:27;99935.75;;;7.07;78.77
17607;BME280;8922;52.240;20.980;2023-02-17T12:18:09;99927.19;;;7.05;78.79
17607;BME280;8922;52.240;20.980;2023-02-17T12:20:49;99913.53;;;7.00;78.37
17607;BME280;8922;52.240;20.980;2023-02-17T12:23:47;99916.09;;;7.05;79.61
17607;BME280;8922;52.240;20.980;2023-02-17T12:26:29;99913.53;;;7.06;78.72
17607;BME280;8922;52.240;20.980;2023-02-17T12:29:15;99900.72;;;7.09;78.91
17607;BME280;8922;52.240;20.980;2023-02-17T12:32:05;99883.63;;;7.10;78.69
17607;BME280;8922;52.240;20.980;2023-02-17T12:34:41;99878.53;;;7.08;78.89
17607;BME280;8922;52.240;20.980;2023-02-17T12:37:18;99870.84;;;7.08;78.60
17607;BME280;8922;52.240;20.980;2023-02-17T12:39:52;99870.00;;;7.08;79.33
17607;BME280;8922;52.240;20.980;2023-02-17T12:42:26;99864.84;;;7.06;79.04
17607;BME280;8922;52.240;20.980;2023-02-17T12:45:06;99859.75;;;7.05;79.16
17607;BME280;8922;52.240;20.980;2023-02-17T12:47:52;99864.03;;;7.07;79.16
17607;BME280;8922;52.240;20.980;2023-02-17T12:50:26;99871.72;;;7.07;79.21
17607;BME280;8922;52.240;20.980;2023-02-17T12:52:59;99859.75;;;7.05;79.73
17607;BME280;8922;52.240;20.980;2023-02-17T12:55:35;99857.16;;;7.09;79.14
17607;BME280;8922;52.240;20.980;2023-02-17T12:58:07;99850.34;;;7.13;80.11
17607;BME280;8922;52.240;20.980;2023-02-17T13:00:43;99857.19;;;7.15;79.73
17607;BME280;8922;52.240;20.980;2023-02-17T13:03:13;99855.44;;;7.20;79.69
17607;BME280;8922;52.240;20.980;2023-02-17T13:05:47;99844.34;;;7.21;79.76
17607;BME280;8922;52.240;20.980;2023-02-17T13:08:23;99824.69;;;7.23;79.92
17607;BME280;8922;52.240;20.980;2023-02-17T13:11:00;99834.09;;;7.28;80.30
17607;BME280;8922;52.240;20.980;2023-02-17T13:13:31;99827.25;;;7.25;79.67
17607;BME280;8922;52.240;20.980;2023-02-17T13:16:03;99833.25;;;7.22;80.29
17607;BME280;8922;52.240;20.980;2023-02-17T13:18:36;99826.41;;;7.24;79.91
17607;BME280;8922;52.240;20.980;2023-02-17T13:21:17;99809.34;;;7.23;80.16
17607;BME280;8922;52.240;20.980;2023-02-17T13:24:00;99811.91;;;7.22;79.85
17607;BME280;8922;52.240;20.980;2023-02-17T13:26:31;99805.06;;;7.22;80.23
17607;BME280;8922;52.240;20.980;2023-02-17T13:29:19;99800.78;;;7.21;80.43
17607;BME280;8922;52.240;20.980;2023-02-17T13:31:52;99795.66;;;7.21;80.54
17607;BME280;8922;52.240;20.980;2023-02-17T13:34:36;99787.13;;;7.25;81.37
17607;BME280;8922;52.240;20.980;2023-02-17T13:37:20;99789.66;;;7.29;81.16
17607;BME280;8922;52.240;20.980;2023-02-17T13:39:51;99785.41;;;7.31;80.74
17607;BME280;8922;52.240;20.980;2023-02-17T13:42:39;99774.28;;;7.30;81.48